createdAt,value
2019-06-27T00:00:36.074Z,21.50
2019-06-27T00:03:05.090Z,21.60
2019-06-27T00:05:33.527Z,21.70
2019-06-27T00:08:02.067Z,21.60
2019-06-27T00:10:34.088Z,21.50
2019-06-27T00:13:00.768Z,21.50
2019-06-27T00:15:29.193Z,21.70
2019-06-27T00:17:57.638Z,22.00
2019-06-27T00:20:26.069Z,22.30
2019-06-27T00:22:54.533Z,22.50
2019-06-27T00:25:23.208Z,21.60
2019-06-27T00:27:54.582Z,21.50
2019-06-27T00:30:23.073Z,21.80
2019-06-27T00:32:51.558Z,21.90
2019-06-27T00:35:20.031Z,21.90
2019-06-27T00:37:48.537Z,21.80
2019-06-27T00:40:17.206Z,21.90
2019-06-27T00:42:45.678Z,21.70
2019-06-27T00:45:14.250Z,21.50
2019-06-27T00:47:42.701Z,21.40
2019-06-27T00:50:11.457Z,21.30
2019-06-27T00:52:39.908Z,21.40
2019-06-27T00:55:09.598Z,21.30
2019-06-27T00:57:38.105Z,20.90
2019-06-27T01:00:07.794Z,21.30
2019-06-27T01:02:36.242Z,20.80
2019-06-27T01:05:06.857Z,21.20
2019-06-27T01:07:35.321Z,21.70
2019-06-27T01:10:05.774Z,22.20
2019-06-27T01:12:34.202Z,22.10
2019-06-27T01:15:02.745Z,22.20
2019-06-27T01:17:31.226Z,22.10
2019-06-27T01:19:59.945Z,21.60
2019-06-27T01:22:28.395Z,20.60
2019-06-27T01:24:56.826Z,21.00
2019-06-27T01:27:29.951Z,20.90
2019-06-27T01:29:55.450Z,20.90
2019-06-27T01:32:23.912Z,20.90
2019-06-27T01:34:52.329Z,21.10
2019-06-27T01:37:20.785Z,21.60
2019-06-27T01:39:49.302Z,22.20
2019-06-27T01:42:17.757Z,22.00
2019-06-27T01:44:47.833Z,21.50
2019-06-27T01:47:16.254Z,22.10
2019-06-27T01:49:45.015Z,21.80
2019-06-27T01:52:13.534Z,21.50
2019-06-27T01:54:41.959Z,21.30
2019-06-27T01:57:10.398Z,21.20
2019-06-27T01:59:38.845Z,21.90
2019-06-27T02:02:07.373Z,21.40
2019-06-27T02:04:36.115Z,21.50
2019-06-27T02:07:04.616Z,21.40
2019-06-27T02:09:33.604Z,21.40
2019-06-27T02:12:02.178Z,21.90
2019-06-27T02:14:30.626Z,21.50
2019-06-27T02:16:59.537Z,21.20
2019-06-27T02:19:28.002Z,21.30
2019-06-27T02:21:56.426Z,21.40
2019-06-27T02:24:24.934Z,21.80
2019-06-27T02:26:53.377Z,21.90
2019-06-27T02:29:21.804Z,22.00
2019-06-27T02:31:50.263Z,22.30
2019-06-27T02:34:19.043Z,22.10
2019-06-27T02:36:47.489Z,21.90
2019-06-27T02:39:15.918Z,21.80
2019-06-27T02:41:44.390Z,21.70
2019-06-27T02:44:12.897Z,20.90
2019-06-27T02:46:41.326Z,20.60
2019-06-27T02:49:09.775Z,20.50
2019-06-27T02:51:38.217Z,20.10
2019-06-27T02:54:06.969Z,20.20
2019-06-27T02:56:35.432Z,20.20
2019-06-27T02:59:03.950Z,21.20
2019-06-27T03:01:32.381Z,21.00
2019-06-27T03:04:00.826Z,21.40
2019-06-27T03:06:29.255Z,21.20
2019-06-27T03:08:57.867Z,20.40
2019-06-27T03:11:26.304Z,20.30
2019-06-27T03:13:54.852Z,20.90
2019-06-27T03:16:23.522Z,21.30
2019-06-27T03:18:51.975Z,21.30
2019-06-27T03:21:20.425Z,20.30
2019-06-27T03:23:48.875Z,20.60
2019-06-27T03:26:17.309Z,20.60
2019-06-27T03:28:52.629Z,20.50
2019-06-27T03:31:16.272Z,20.60
2019-06-27T03:33:44.729Z,20.80
2019-06-27T03:36:13.157Z,21.40
2019-06-27T03:38:41.882Z,21.80
2019-06-27T03:41:10.347Z,21.80
2019-06-27T03:43:38.872Z,21.20
2019-06-27T03:46:07.305Z,20.90
2019-06-27T03:48:35.754Z,20.20
2019-06-27T03:51:04.498Z,21.00
2019-06-27T03:53:32.968Z,21.10
2019-06-27T03:56:01.803Z,21.20
2019-06-27T03:58:30.279Z,20.30
2019-06-27T04:00:58.734Z,20.10
2019-06-27T04:03:27.162Z,19.80
2019-06-27T04:05:55.873Z,19.90
2019-06-27T04:08:24.621Z,19.70
2019-06-27T04:10:53.133Z,20.20
2019-06-27T04:13:21.559Z,19.90
2019-06-27T04:15:50.241Z,20.00
2019-06-27T04:18:18.691Z,20.20
2019-06-27T04:20:47.129Z,20.00
2019-06-27T04:23:15.997Z,20.10
2019-06-27T04:25:44.463Z,20.20
2019-06-27T04:28:12.886Z,20.40
2019-06-27T04:30:41.510Z,20.50
2019-06-27T04:33:09.937Z,21.00
2019-06-27T04:35:38.391Z,20.50
2019-06-27T04:38:06.835Z,20.70
2019-06-27T04:40:35.369Z,21.00
2019-06-27T04:43:05.690Z,21.10
2019-06-27T04:45:34.058Z,21.10
2019-06-27T04:48:02.564Z,21.10
2019-06-27T04:50:31.031Z,21.30
2019-06-27T04:52:59.808Z,21.10
2019-06-27T04:55:28.233Z,20.10
2019-06-27T04:57:56.691Z,20.10
2019-06-27T05:00:28.432Z,19.70
2019-06-27T05:02:56.942Z,20.10
2019-06-27T05:05:25.394Z,20.30
2019-06-27T05:07:53.990Z,20.50
2019-06-27T05:10:22.447Z,20.90
2019-06-27T05:12:50.908Z,20.70
2019-06-27T05:15:19.402Z,20.50
2019-06-27T05:17:47.856Z,20.80
2019-06-27T05:20:16.306Z,20.30
2019-06-27T05:22:44.762Z,20.10
2019-06-27T05:25:13.199Z,20.70
2019-06-27T05:27:41.645Z,20.00
2019-06-27T05:30:10.705Z,19.80
2019-06-27T05:32:39.370Z,20.30
2019-06-27T05:35:07.895Z,20.40
2019-06-27T05:37:36.322Z,20.20
2019-06-27T05:40:06.468Z,20.30
2019-06-27T05:42:34.911Z,20.70
2019-06-27T05:45:04.301Z,20.90
2019-06-27T05:47:32.752Z,20.60
2019-06-27T05:50:01.184Z,20.50
2019-06-27T05:52:29.609Z,20.60
2019-06-27T05:54:58.058Z,20.80
2019-06-27T05:57:26.572Z,20.50
2019-06-27T05:59:55.014Z,20.80
2019-06-27T06:02:23.460Z,20.80
2019-06-27T06:04:51.913Z,21.00
2019-06-27T06:07:20.364Z,20.80
2019-06-27T06:09:48.797Z,20.90
2019-06-27T06:12:17.229Z,21.10
2019-06-27T06:14:45.685Z,21.30
2019-06-27T06:17:14.100Z,21.10
2019-06-27T06:19:42.549Z,21.20
2019-06-27T06:22:11.081Z,21.90
2019-06-27T06:24:39.528Z,22.10
2019-06-27T06:27:07.987Z,21.90
2019-06-27T06:29:36.740Z,21.80
2019-06-27T06:32:05.232Z,21.90
2019-06-27T06:34:33.688Z,21.30
2019-06-27T06:37:02.145Z,21.80
2019-06-27T06:39:30.578Z,21.30
2019-06-27T06:41:59.066Z,20.70
2019-06-27T06:44:27.506Z,20.70
2019-06-27T06:46:55.934Z,20.40
2019-06-27T06:49:24.380Z,20.60
2019-06-27T06:51:52.830Z,21.00
2019-06-27T06:54:21.271Z,21.30
2019-06-27T06:56:49.698Z,21.20
2019-06-27T06:59:18.146Z,21.30
2019-06-27T07:01:46.638Z,21.00
2019-06-27T07:04:15.070Z,21.80
2019-06-27T07:06:43.521Z,21.90
2019-06-27T07:09:11.950Z,22.00
2019-06-27T07:11:40.762Z,21.00
2019-06-27T07:14:09.222Z,20.40
2019-06-27T07:16:37.728Z,21.30
2019-06-27T07:19:06.163Z,21.10
2019-06-27T07:21:34.672Z,21.70
2019-06-27T07:24:03.188Z,21.70
2019-06-27T07:26:31.671Z,21.50
2019-06-27T07:29:00.192Z,21.30
2019-06-27T07:31:28.660Z,21.00
2019-06-27T07:33:57.096Z,20.50
2019-06-27T07:36:25.621Z,20.40
2019-06-27T07:38:54.050Z,20.40
2019-06-27T07:41:22.514Z,20.60
2019-06-27T07:43:50.962Z,20.90
2019-06-27T07:46:25.016Z,21.10
2019-06-27T07:48:49.550Z,21.10
2019-06-27T07:51:18.031Z,21.20
2019-06-27T07:53:46.500Z,21.20
2019-06-27T07:56:14.965Z,21.10
2019-06-27T07:58:43.426Z,20.70
2019-06-27T08:01:11.849Z,20.90
2019-06-27T08:03:40.314Z,21.20
2019-06-27T08:06:08.765Z,20.90
2019-06-27T08:08:37.200Z,20.60
2019-06-27T08:11:05.700Z,20.40
2019-06-27T08:13:34.155Z,20.10
2019-06-27T08:16:02.595Z,20.20
2019-06-27T08:18:31.063Z,20.30
2019-06-27T08:20:59.493Z,20.20
2019-06-27T08:23:41.075Z,20.20
2019-06-27T08:25:58.243Z,20.20
2019-06-27T08:28:26.661Z,20.30
2019-06-27T08:30:55.150Z,20.30
2019-06-27T08:33:23.606Z,20.40
2019-06-27T08:35:52.057Z,20.80
2019-06-27T08:38:20.528Z,21.10
2019-06-27T08:40:48.964Z,21.00
2019-06-27T08:43:17.461Z,20.70
2019-06-27T08:45:45.921Z,20.50
2019-06-27T08:48:14.662Z,20.50
2019-06-27T08:50:43.083Z,20.60
2019-06-27T08:53:11.527Z,20.40
2019-06-27T08:55:42.900Z,20.30
2019-06-27T08:58:11.343Z,20.20
2019-06-27T09:00:39.786Z,19.80
2019-06-27T09:03:08.234Z,20.20
2019-06-27T09:05:36.707Z,20.50
2019-06-27T09:08:05.127Z,20.30
2019-06-27T09:10:33.549Z,20.00
2019-06-27T09:13:01.994Z,20.30
2019-06-27T09:15:30.517Z,20.90
2019-06-27T09:17:58.969Z,20.50
2019-06-27T09:20:27.430Z,20.50
2019-06-27T09:22:56.162Z,20.30
2019-06-27T09:25:24.679Z,20.40
2019-06-27T09:27:53.243Z,20.50
2019-06-27T09:30:21.823Z,20.70
2019-06-27T09:32:50.598Z,21.40
2019-06-27T09:35:19.193Z,21.10
2019-06-27T09:37:47.643Z,20.50
2019-06-27T09:40:16.478Z,20.20
2019-06-27T09:42:45.178Z,20.50
2019-06-27T09:45:13.848Z,21.00
2019-06-27T09:47:42.294Z,20.60
2019-06-27T09:50:11.161Z,20.40
2019-06-27T09:52:39.682Z,20.10
2019-06-27T09:55:08.550Z,20.20
2019-06-27T09:57:37.022Z,20.30
2019-06-27T10:00:09.705Z,20.40
2019-06-27T10:02:42.347Z,20.20
2019-06-27T10:05:08.527Z,20.10
2019-06-27T10:07:36.973Z,20.10
2019-06-27T10:10:06.494Z,20.40
2019-06-27T10:12:42.182Z,20.20
2019-06-27T10:15:08.767Z,20.70
2019-06-27T10:17:37.310Z,21.00
2019-06-27T10:20:07.602Z,20.90
2019-06-27T10:22:36.090Z,20.90
2019-06-27T10:25:06.563Z,21.10
2019-06-27T10:27:35.015Z,21.30
2019-06-27T10:30:05.212Z,21.00
2019-06-27T10:32:33.650Z,21.30
2019-06-27T10:35:02.100Z,21.00
2019-06-27T10:37:30.533Z,21.10
2019-06-27T10:39:59.093Z,21.10
2019-06-27T10:42:27.517Z,21.40
2019-06-27T10:44:56.278Z,20.90
2019-06-27T10:47:24.814Z,20.70
2019-06-27T10:49:53.269Z,20.80
2019-06-27T10:52:21.726Z,20.80
2019-06-27T10:54:50.148Z,20.80
2019-06-27T10:57:18.613Z,20.50
2019-06-27T10:59:47.079Z,20.40
2019-06-27T11:02:15.626Z,20.50
2019-06-27T11:04:44.389Z,20.80
2019-06-27T11:07:12.826Z,20.90
2019-06-27T11:09:41.246Z,20.60
2019-06-27T11:12:09.697Z,20.80
2019-06-27T11:14:38.414Z,21.00
2019-06-27T11:17:06.849Z,21.40
2019-06-27T11:19:51.202Z,21.40
2019-06-27T11:22:05.545Z,21.60
2019-06-27T11:24:33.978Z,21.20
2019-06-27T11:27:02.624Z,21.30
2019-06-27T11:29:31.169Z,21.40
2019-06-27T11:31:59.602Z,21.40
2019-06-27T11:34:28.038Z,21.30
2019-06-27T11:36:56.465Z,21.30
2019-06-27T11:39:24.918Z,21.60
2019-06-27T11:41:53.361Z,21.30
2019-06-27T11:44:21.817Z,21.50
2019-06-27T11:46:50.261Z,21.30
2019-06-27T11:49:18.713Z,20.90
2019-06-27T11:51:47.160Z,20.90
2019-06-27T11:54:15.594Z,20.80
2019-06-27T11:56:44.122Z,20.80
2019-06-27T11:59:12.817Z,20.80
2019-06-27T12:01:41.347Z,20.70
2019-06-27T12:04:09.815Z,21.30
2019-06-27T12:06:38.250Z,21.50
2019-06-27T12:09:06.706Z,21.90
2019-06-27T12:11:35.144Z,22.00
2019-06-27T12:14:03.599Z,22.00
2019-06-27T12:16:32.030Z,22.10
2019-06-27T12:19:00.474Z,22.10
2019-06-27T12:21:28.903Z,21.70
2019-06-27T12:23:57.367Z,21.70
2019-06-27T12:26:25.818Z,21.50
2019-06-27T12:28:54.333Z,21.20
2019-06-27T12:31:22.763Z,21.30
2019-06-27T12:34:05.735Z,21.40
2019-06-27T12:36:21.667Z,21.40
2019-06-27T12:38:50.114Z,21.40
2019-06-27T12:41:18.633Z,21.40
2019-06-27T12:43:47.159Z,21.40
2019-06-27T12:46:15.675Z,21.40
2019-06-27T12:48:44.127Z,21.40
2019-06-27T12:51:12.573Z,21.60
2019-06-27T12:53:41.037Z,21.60
2019-06-27T12:56:09.481Z,21.20
2019-06-27T12:58:37.926Z,21.40
2019-06-27T13:01:06.374Z,21.30
2019-06-27T13:03:34.822Z,21.30
2019-06-27T13:06:03.345Z,21.30
2019-06-27T13:08:31.790Z,21.50
2019-06-27T13:11:00.242Z,21.70
2019-06-27T13:13:30.487Z,21.50
2019-06-27T13:15:58.871Z,21.20
2019-06-27T13:18:27.297Z,21.40
2019-06-27T13:20:58.473Z,21.20
2019-06-27T13:23:25.893Z,21.10
2019-06-27T13:25:54.346Z,21.30
2019-06-27T13:28:22.785Z,21.40
2019-06-27T13:30:51.209Z,21.60
2019-06-27T13:33:19.925Z,21.40
2019-06-27T13:35:49.163Z,21.10
2019-06-27T13:38:17.887Z,21.00
2019-06-27T13:40:46.349Z,21.20
2019-06-27T13:43:15.090Z,21.50
2019-06-27T13:45:43.611Z,21.40
2019-06-27T13:48:12.066Z,21.50
2019-06-27T13:50:40.522Z,21.70
2019-06-27T13:53:09.026Z,21.80
2019-06-27T13:55:37.459Z,22.00
2019-06-27T13:58:05.907Z,21.40
2019-06-27T14:00:45.150Z,21.60
2019-06-27T14:03:13.608Z,21.40
2019-06-27T14:05:42.197Z,21.30
2019-06-27T14:08:10.736Z,21.50
2019-06-27T14:10:39.153Z,21.50
2019-06-27T14:13:07.674Z,21.20
2019-06-27T14:15:36.101Z,21.20
2019-06-27T14:18:04.546Z,21.40
2019-06-27T14:20:33.065Z,21.40
2019-06-27T14:23:01.521Z,21.30
2019-06-27T14:25:30.080Z,21.00
2019-06-27T14:27:58.590Z,20.90
2019-06-27T14:30:27.073Z,21.10
2019-06-27T14:32:55.534Z,21.30
2019-06-27T14:35:23.969Z,21.60
2019-06-27T14:37:52.398Z,21.70
2019-06-27T14:40:22.377Z,21.50
2019-06-27T14:42:51.439Z,21.20
2019-06-27T14:45:20.018Z,21.10
2019-06-27T14:47:48.521Z,20.80
2019-06-27T14:50:17.024Z,21.10
2019-06-27T14:52:48.753Z,21.20
2019-06-27T14:55:17.734Z,20.90
2019-06-27T14:57:46.201Z,20.60
2019-06-27T15:00:15.231Z,20.90
2019-06-27T15:02:43.677Z,20.60
2019-06-27T15:05:22.217Z,20.50
2019-06-27T15:07:44.081Z,20.70
2019-06-27T15:10:13.778Z,21.10
2019-06-27T15:12:55.984Z,20.80
2019-06-27T15:15:12.804Z,20.80
2019-06-27T15:17:41.338Z,21.00
2019-06-27T15:20:11.097Z,20.90
2019-06-27T15:22:39.838Z,20.80
2019-06-27T15:25:08.825Z,20.50
2019-06-27T15:27:37.296Z,20.60
2019-06-27T15:30:08.327Z,20.90
2019-06-27T15:32:36.796Z,21.20
2019-06-27T15:35:06.579Z,21.00
2019-06-27T15:37:35.025Z,20.80
2019-06-27T15:40:05.881Z,20.80
2019-06-27T15:42:34.325Z,20.70
2019-06-27T15:45:02.992Z,20.60
2019-06-27T15:47:31.497Z,20.60
2019-06-27T15:50:00.017Z,20.50
2019-06-27T15:52:28.678Z,20.60
2019-06-27T15:54:57.135Z,20.90
2019-06-27T15:57:25.591Z,20.80
2019-06-27T15:59:54.041Z,20.90
2019-06-27T16:02:22.503Z,21.00
2019-06-27T16:04:51.190Z,21.00
2019-06-27T16:07:19.650Z,21.10
2019-06-27T16:09:48.132Z,21.10
2019-06-27T16:12:16.584Z,21.10
2019-06-27T16:14:45.023Z,21.00
2019-06-27T16:17:13.482Z,20.80
2019-06-27T16:19:41.901Z,20.70
2019-06-27T16:22:10.357Z,20.70
2019-06-27T16:24:38.849Z,21.00
2019-06-27T16:27:07.302Z,21.10
2019-06-27T16:29:35.730Z,21.10
2019-06-27T16:32:04.490Z,21.00
2019-06-27T16:34:32.941Z,20.90
2019-06-27T16:37:01.382Z,20.90
2019-06-27T16:39:29.889Z,21.00
2019-06-27T16:41:58.309Z,21.10
2019-06-27T16:44:26.737Z,21.00
2019-06-27T16:46:55.190Z,20.90
2019-06-27T16:49:23.654Z,21.10
2019-06-27T16:51:52.107Z,20.90
2019-06-27T16:54:20.844Z,20.80
2019-06-27T16:56:49.428Z,20.80
2019-06-27T16:59:17.885Z,20.60
2019-06-27T17:01:46.695Z,21.10
2019-06-27T17:04:15.147Z,21.50
2019-06-27T17:06:43.658Z,21.70
2019-06-27T17:09:12.093Z,21.90
2019-06-27T17:11:40.541Z,22.00
2019-06-27T17:14:08.990Z,21.90
2019-06-27T17:16:37.449Z,22.00
2019-06-27T17:19:05.875Z,21.90
2019-06-27T17:21:34.332Z,22.00
2019-06-27T17:24:02.768Z,22.00
2019-06-27T17:26:34.270Z,22.00
2019-06-27T17:29:02.948Z,22.00
2019-06-27T17:31:31.406Z,21.90
2019-06-27T17:33:59.867Z,22.00
2019-06-27T17:36:28.301Z,22.10
2019-06-27T17:38:56.885Z,21.90
2019-06-27T17:41:25.308Z,21.90
2019-06-27T17:43:53.778Z,21.90
2019-06-27T17:46:22.529Z,22.00
2019-06-27T17:48:50.956Z,22.00
2019-06-27T17:51:19.487Z,22.00
2019-06-27T17:53:47.916Z,21.90
2019-06-27T17:56:16.374Z,21.90
2019-06-27T17:58:44.860Z,21.50
2019-06-27T18:01:13.610Z,21.30
2019-06-27T18:03:42.072Z,21.00
2019-06-27T18:06:10.595Z,21.30
2019-06-27T18:08:39.102Z,21.00
2019-06-27T18:11:07.534Z,20.90
2019-06-27T18:13:35.984Z,20.80
2019-06-27T18:16:04.545Z,20.60
2019-06-27T18:18:32.998Z,20.50
2019-06-27T18:21:01.434Z,20.50
2019-06-27T18:23:29.889Z,20.50
2019-06-27T18:25:58.318Z,20.50
2019-06-27T18:28:26.765Z,20.30
2019-06-27T18:30:55.206Z,20.20
2019-06-27T18:33:23.661Z,20.60
2019-06-27T18:35:52.186Z,20.70
2019-06-27T18:38:20.626Z,20.90
2019-06-27T18:40:49.336Z,20.80
2019-06-27T18:43:17.843Z,20.50
2019-06-27T18:45:46.278Z,20.30
2019-06-27T18:48:14.722Z,20.30
2019-06-27T18:50:43.152Z,20.40
2019-06-27T18:53:11.649Z,20.30
2019-06-27T18:55:40.090Z,20.20
2019-06-27T18:58:08.663Z,20.10
2019-06-27T19:00:37.373Z,20.10
2019-06-27T19:03:05.985Z,20.20
2019-06-27T19:05:34.434Z,20.10
2019-06-27T19:08:02.908Z,20.10
2019-06-27T19:10:31.326Z,20.20
2019-06-27T19:12:59.774Z,20.00
2019-06-27T19:15:28.214Z,20.10
2019-06-27T19:17:56.942Z,20.20
2019-06-27T19:20:33.228Z,20.20
2019-06-27T19:23:12.588Z,20.10
2019-06-27T19:25:54.593Z,20.00
2019-06-27T19:28:23.013Z,19.90
2019-06-27T19:30:51.471Z,20.10
2019-06-27T19:33:20.168Z,20.00
2019-06-27T19:35:48.677Z,19.90
2019-06-27T19:38:17.097Z,19.90
2019-06-27T19:40:45.530Z,19.90
2019-06-27T19:43:27.040Z,19.90
2019-06-27T19:45:44.135Z,19.80
2019-06-27T19:48:12.582Z,19.70
2019-06-27T19:50:41.090Z,19.70
2019-06-27T19:53:09.530Z,19.90
2019-06-27T19:55:37.990Z,19.90
2019-06-27T19:58:06.430Z,20.10
2019-06-27T20:00:34.879Z,19.90
2019-06-27T20:03:03.302Z,19.70
2019-06-27T20:05:32.086Z,19.70
2019-06-27T20:08:00.524Z,19.80
2019-06-27T20:10:28.978Z,19.90
2019-06-27T20:12:57.742Z,19.80
2019-06-27T20:15:26.191Z,19.70
2019-06-27T20:17:54.725Z,19.60
2019-06-27T20:20:23.141Z,19.70
2019-06-27T20:22:51.561Z,19.80
2019-06-27T20:25:20.014Z,19.70
2019-06-27T20:27:48.470Z,19.50
2019-06-27T20:30:17.746Z,19.50
2019-06-27T20:32:46.509Z,19.60
2019-06-27T20:35:15.058Z,19.70
2019-06-27T20:37:43.558Z,19.60
2019-06-27T20:40:12.433Z,19.30
2019-06-27T20:42:41.141Z,19.50
2019-06-27T20:45:10.137Z,19.40
2019-06-27T20:47:38.629Z,19.60
2019-06-27T20:50:08.015Z,19.60
2019-06-27T20:52:36.522Z,19.30
2019-06-27T20:55:06.309Z,19.30
2019-06-27T20:57:35.009Z,19.20
2019-06-27T21:00:04.502Z,19.40
2019-06-27T21:02:32.946Z,19.40
2019-06-27T21:05:01.676Z,19.40
2019-06-27T21:07:30.089Z,19.40
2019-06-27T21:09:58.774Z,19.30
2019-06-27T21:12:27.635Z,19.20
2019-06-27T21:14:56.067Z,19.20
2019-06-27T21:17:24.590Z,19.30
2019-06-27T21:19:53.037Z,19.20
2019-06-27T21:22:21.490Z,19.30
2019-06-27T21:24:49.915Z,19.20
2019-06-27T21:27:18.365Z,19.20
2019-06-27T21:29:46.815Z,19.20
2019-06-27T21:32:30.501Z,19.30
2019-06-27T21:34:45.421Z,19.40
2019-06-27T21:37:13.846Z,19.20
2019-06-27T21:39:42.377Z,19.20
2019-06-27T21:42:10.892Z,19.20
2019-06-27T21:44:39.337Z,19.20
2019-06-27T21:47:07.795Z,19.30
2019-06-27T21:49:36.242Z,19.30
2019-06-27T21:52:04.744Z,19.40
2019-06-27T21:54:33.204Z,19.10
2019-06-27T21:57:01.627Z,19.00
2019-06-27T21:59:30.058Z,19.20
2019-06-27T22:01:58.514Z,19.20
2019-06-27T22:04:30.395Z,19.10
2019-06-27T22:06:57.142Z,19.30
2019-06-27T22:09:25.819Z,19.20
2019-06-27T22:11:54.531Z,19.10
2019-06-27T22:14:22.961Z,19.10
2019-06-27T22:16:51.393Z,19.30
2019-06-27T22:19:19.843Z,19.20
2019-06-27T22:21:48.365Z,19.70
2019-06-27T22:24:16.830Z,19.50
2019-06-27T22:26:45.317Z,19.20
2019-06-27T22:29:13.780Z,19.10
2019-06-27T22:31:42.208Z,19.30
2019-06-27T22:34:10.649Z,19.30
2019-06-27T22:36:39.083Z,19.40
2019-06-27T22:39:39.615Z,19.50
2019-06-27T22:42:13.834Z,19.40
2019-06-27T22:45:00.419Z,19.40
2019-06-27T22:47:47.066Z,19.50
2019-06-27T22:50:24.094Z,19.50
2019-06-27T22:53:00.530Z,19.60
2019-06-27T22:55:30.360Z,19.40
2019-06-27T22:57:58.794Z,19.30
2019-06-27T23:00:27.250Z,19.10
2019-06-27T23:02:55.702Z,19.10
2019-06-27T23:05:43.763Z,19.20
2019-06-27T23:08:12.303Z,19.50
2019-06-27T23:10:41.062Z,19.10
2019-06-27T23:13:09.549Z,19.00
2019-06-27T23:15:38.024Z,19.00
2019-06-27T23:18:06.475Z,19.10
2019-06-27T23:20:34.940Z,19.20
2019-06-27T23:23:03.357Z,19.40
2019-06-27T23:25:31.814Z,19.40
2019-06-27T23:28:00.241Z,19.10
2019-06-27T23:30:29.457Z,19.00
2019-06-27T23:32:57.909Z,19.40
2019-06-27T23:35:26.817Z,19.10
2019-06-27T23:37:55.275Z,19.10
2019-06-27T23:40:23.702Z,18.90
2019-06-27T23:42:52.150Z,18.90
2019-06-27T23:45:20.603Z,19.20
2019-06-27T23:47:49.234Z,19.20
2019-06-27T23:50:17.726Z,19.20
2019-06-27T23:52:46.149Z,19.10
2019-06-27T23:55:14.593Z,19.00
2019-06-27T23:57:43.074Z,19.10
